sensor_id;sensor_type;location;lat;lon;timestamp;P1;durP1;ratioP1;P2;durP2;ratioP2
71164;SDS011;58859;55.132;-1.586;2024-02-15T00:00:14;3.78;;;1.63;;
71164;SDS011;58859;55.132;-1.586;2024-02-15T00:02:42;7.80;;;2.17;;
71164;SDS011;58859;55.132;-1.586;2024-02-15T00:05:09;5.05;;;2.00;;
71164;SDS011;58859;55.132;-1.586;2024-02-15T00:07:35;5.97;;;1.90;;
71164;SDS011;58859;55.132;-1.586;2024-02-15T00:10:01;7.10;;;1.85;;
71164;SDS011;58859;55.132;-1.586;2024-02-15T00:12:28;5.63;;;1.87;;
71164;SDS011;58859;55.132;-1.586;2024-02-15T00:14:55;6.53;;;2.55;;
71164;SDS011;58859;55.132;-1.586;2024-02-15T00:17:23;4.28;;;2.08;;
71164;SDS011;58859;55.132;-1.586;2024-02-15T00:19:49;5.55;;;1.90;;
71164;SDS011;58859;55.132;-1.586;2024-02-15T00:22:14;6.03;;;1.63;;
71164;SDS011;58859;55.132;-1.586;2024-02-15T00:24:40;3.90;;;2.03;;
71164;SDS011;58859;55.132;-1.586;2024-02-15T00:27:07;4.55;;;1.95;;
71164;SDS011;58859;55.132;-1.586;2024-02-15T00:29:33;5.00;;;2.08;;
71164;SDS011;58859;55.132;-1.586;2024-02-15T00:31:59;7.93;;;2.17;;
71164;SDS011;58859;55.132;-1.586;2024-02-15T00:34:25;6.00;;;2.30;;
71164;SDS011;58859;55.132;-1.586;2024-02-15T00:36:51;7.72;;;2.40;;
71164;SDS011;58859;55.132;-1.586;2024-02-15T00:39:17;4.63;;;2.13;;
71164;SDS011;58859;55.132;-1.586;2024-02-15T00:41:43;8.35;;;2.10;;
71164;SDS011;58859;55.132;-1.586;2024-02-15T00:44:10;6.15;;;1.92;;
71164;SDS011;58859;55.132;-1.586;2024-02-15T00:46:36;4.53;;;1.93;;
71164;SDS011;58859;55.132;-1.586;2024-02-15T00:49:03;5.57;;;2.10;;
71164;SDS011;58859;55.132;-1.586;2024-02-15T00:51:31;5.68;;;2.13;;
71164;SDS011;58859;55.132;-1.586;2024-02-15T00:53:58;9.45;;;2.63;;
71164;SDS011;58859;55.132;-1.586;2024-02-15T00:56:24;6.77;;;2.50;;
71164;SDS011;58859;55.132;-1.586;2024-02-15T00:58:49;4.40;;;2.38;;
71164;SDS011;58859;55.132;-1.586;2024-02-15T01:01:15;6.40;;;2.63;;
71164;SDS011;58859;55.132;-1.586;2024-02-15T01:03:40;9.17;;;3.10;;
71164;SDS011;58859;55.132;-1.586;2024-02-15T01:06:05;6.20;;;2.10;;
71164;SDS011;58859;55.132;-1.586;2024-02-15T01:08:31;9.52;;;2.72;;
71164;SDS011;58859;55.132;-1.586;2024-02-15T01:10:57;9.05;;;3.30;;
71164;SDS011;58859;55.132;-1.586;2024-02-15T01:13:23;5.37;;;2.27;;
71164;SDS011;58859;55.132;-1.586;2024-02-15T01:15:48;6.57;;;2.80;;
71164;SDS011;58859;55.132;-1.586;2024-02-15T01:18:15;8.07;;;2.70;;
71164;SDS011;58859;55.132;-1.586;2024-02-15T01:20:40;9.13;;;3.23;;
71164;SDS011;58859;55.132;-1.586;2024-02-15T01:23:06;6.57;;;2.85;;
71164;SDS011;58859;55.132;-1.586;2024-02-15T01:25:32;9.87;;;3.70;;
71164;SDS011;58859;55.132;-1.586;2024-02-15T01:27:58;9.38;;;2.97;;
71164;SDS011;58859;55.132;-1.586;2024-02-15T01:30:23;7.27;;;2.77;;
71164;SDS011;58859;55.132;-1.586;2024-02-15T01:32:49;9.77;;;3.67;;
71164;SDS011;58859;55.132;-1.586;2024-02-15T01:35:14;9.50;;;3.20;;
71164;SDS011;58859;55.132;-1.586;2024-02-15T01:37:40;11.67;;;3.60;;
71164;SDS011;58859;55.132;-1.586;2024-02-15T01:40:06;10.65;;;3.90;;
71164;SDS011;58859;55.132;-1.586;2024-02-15T01:42:32;12.65;;;4.40;;
71164;SDS011;58859;55.132;-1.586;2024-02-15T01:44:57;11.30;;;3.95;;
71164;SDS011;58859;55.132;-1.586;2024-02-15T01:47:23;17.07;;;5.00;;
71164;SDS011;58859;55.132;-1.586;2024-02-15T01:49:49;14.27;;;4.60;;
71164;SDS011;58859;55.132;-1.586;2024-02-15T01:52:17;9.50;;;4.63;;
71164;SDS011;58859;55.132;-1.586;2024-02-15T01:54:43;11.90;;;4.77;;
71164;SDS011;58859;55.132;-1.586;2024-02-15T01:57:10;14.18;;;5.03;;
71164;SDS011;58859;55.132;-1.586;2024-02-15T01:59:35;8.67;;;4.70;;
71164;SDS011;58859;55.132;-1.586;2024-02-15T02:02:02;12.93;;;5.35;;
71164;SDS011;58859;55.132;-1.586;2024-02-15T02:04:29;10.95;;;5.15;;
71164;SDS011;58859;55.132;-1.586;2024-02-15T02:06:56;13.07;;;5.13;;
71164;SDS011;58859;55.132;-1.586;2024-02-15T02:09:23;11.10;;;4.72;;
71164;SDS011;58859;55.132;-1.586;2024-02-15T02:11:49;14.35;;;6.13;;
71164;SDS011;58859;55.132;-1.586;2024-02-15T02:14:15;12.87;;;5.30;;
71164;SDS011;58859;55.132;-1.586;2024-02-15T02:16:41;16.05;;;5.75;;
71164;SDS011;58859;55.132;-1.586;2024-02-15T02:19:06;10.03;;;4.77;;
71164;SDS011;58859;55.132;-1.586;2024-02-15T02:21:34;12.38;;;6.00;;
71164;SDS011;58859;55.132;-1.586;2024-02-15T02:24:00;14.40;;;5.72;;
71164;SDS011;58859;55.132;-1.586;2024-02-15T02:26:33;16.57;;;6.23;;
71164;SDS011;58859;55.132;-1.586;2024-02-15T02:28:59;15.32;;;6.10;;
71164;SDS011;58859;55.132;-1.586;2024-02-15T02:31:28;21.05;;;6.63;;
71164;SDS011;58859;55.132;-1.586;2024-02-15T02:33:54;12.85;;;7.07;;
71164;SDS011;58859;55.132;-1.586;2024-02-15T02:36:20;15.05;;;6.15;;
71164;SDS011;58859;55.132;-1.586;2024-02-15T02:38:46;17.87;;;6.40;;
71164;SDS011;58859;55.132;-1.586;2024-02-15T02:41:15;18.42;;;7.63;;
71164;SDS011;58859;55.132;-1.586;2024-02-15T02:43:40;17.52;;;8.20;;
71164;SDS011;58859;55.132;-1.586;2024-02-15T02:46:06;17.03;;;7.23;;
71164;SDS011;58859;55.132;-1.586;2024-02-15T02:48:35;15.30;;;6.90;;
71164;SDS011;58859;55.132;-1.586;2024-02-15T02:51:01;15.50;;;7.60;;
71164;SDS011;58859;55.132;-1.586;2024-02-15T02:53:27;15.68;;;7.72;;
71164;SDS011;58859;55.132;-1.586;2024-02-15T02:55:53;18.57;;;7.57;;
71164;SDS011;58859;55.132;-1.586;2024-02-15T02:58:21;15.60;;;7.05;;
71164;SDS011;58859;55.132;-1.586;2024-02-15T03:00:48;19.80;;;7.28;;
71164;SDS011;58859;55.132;-1.586;2024-02-15T03:03:13;21.60;;;9.17;;
71164;SDS011;58859;55.132;-1.586;2024-02-15T03:05:39;14.20;;;7.90;;
71164;SDS011;58859;55.132;-1.586;2024-02-15T03:08:05;16.80;;;7.57;;
71164;SDS011;58859;55.132;-1.586;2024-02-15T03:10:31;17.95;;;9.32;;
71164;SDS011;58859;55.132;-1.586;2024-02-15T03:12:56;17.13;;;7.93;;
71164;SDS011;58859;55.132;-1.586;2024-02-15T03:15:22;20.83;;;7.97;;
71164;SDS011;58859;55.132;-1.586;2024-02-15T03:17:48;15.83;;;8.30;;
71164;SDS011;58859;55.132;-1.586;2024-02-15T03:20:13;20.77;;;8.47;;
71164;SDS011;58859;55.132;-1.586;2024-02-15T03:25:21;20.95;;;7.63;;
71164;SDS011;58859;55.132;-1.586;2024-02-15T03:27:50;17.52;;;8.65;;
71164;SDS011;58859;55.132;-1.586;2024-02-15T03:30:19;17.40;;;8.00;;
71164;SDS011;58859;55.132;-1.586;2024-02-15T03:32:48;20.38;;;8.52;;
71164;SDS011;58859;55.132;-1.586;2024-02-15T03:35:16;15.90;;;8.20;;
71164;SDS011;58859;55.132;-1.586;2024-02-15T03:37:42;17.27;;;8.35;;
71164;SDS011;58859;55.132;-1.586;2024-02-15T03:40:08;20.13;;;8.03;;
71164;SDS011;58859;55.132;-1.586;2024-02-15T03:42:34;18.85;;;8.10;;
71164;SDS011;58859;55.132;-1.586;2024-02-15T03:45:03;17.98;;;8.75;;
71164;SDS011;58859;55.132;-1.586;2024-02-15T03:47:31;16.47;;;7.83;;
71164;SDS011;58859;55.132;-1.586;2024-02-15T03:50:03;12.65;;;7.28;;
71164;SDS011;58859;55.132;-1.586;2024-02-15T03:52:34;15.30;;;8.18;;
71164;SDS011;58859;55.132;-1.586;2024-02-15T03:55:00;13.38;;;6.82;;
71164;SDS011;58859;55.132;-1.586;2024-02-15T03:57:27;12.07;;;6.73;;
71164;SDS011;58859;55.132;-1.586;2024-02-15T03:59:53;14.68;;;7.40;;
71164;SDS011;58859;55.132;-1.586;2024-02-15T04:02:20;12.35;;;6.85;;
71164;SDS011;58859;55.132;-1.586;2024-02-15T04:04:46;11.80;;;6.53;;
71164;SDS011;58859;55.132;-1.586;2024-02-15T04:07:17;14.35;;;6.60;;
71164;SDS011;58859;55.132;-1.586;2024-02-15T04:09:43;9.60;;;6.43;;
71164;SDS011;58859;55.132;-1.586;2024-02-15T04:12:08;8.97;;;5.80;;
71164;SDS011;58859;55.132;-1.586;2024-02-15T04:14:34;12.17;;;6.33;;
71164;SDS011;58859;55.132;-1.586;2024-02-15T04:17:00;11.07;;;6.28;;
71164;SDS011;58859;55.132;-1.586;2024-02-15T04:19:26;11.13;;;6.65;;
71164;SDS011;58859;55.132;-1.586;2024-02-15T04:21:53;8.57;;;5.33;;
71164;SDS011;58859;55.132;-1.586;2024-02-15T04:24:20;8.15;;;4.97;;
71164;SDS011;58859;55.132;-1.586;2024-02-15T04:26:46;11.75;;;5.53;;
71164;SDS011;58859;55.132;-1.586;2024-02-15T04:29:13;8.63;;;5.53;;
71164;SDS011;58859;55.132;-1.586;2024-02-15T04:31:40;8.65;;;5.70;;
71164;SDS011;58859;55.132;-1.586;2024-02-15T04:34:07;8.33;;;5.47;;
71164;SDS011;58859;55.132;-1.586;2024-02-15T04:36:34;9.82;;;5.43;;
71164;SDS011;58859;55.132;-1.586;2024-02-15T04:39:00;8.32;;;4.57;;
71164;SDS011;58859;55.132;-1.586;2024-02-15T04:41:29;6.10;;;4.72;;
71164;SDS011;58859;55.132;-1.586;2024-02-15T04:43:54;8.68;;;4.72;;
71164;SDS011;58859;55.132;-1.586;2024-02-15T04:46:20;6.30;;;4.20;;
71164;SDS011;58859;55.132;-1.586;2024-02-15T04:48:49;7.18;;;4.93;;
71164;SDS011;58859;55.132;-1.586;2024-02-15T04:51:15;7.23;;;4.73;;
71164;SDS011;58859;55.132;-1.586;2024-02-15T04:53:41;6.63;;;4.75;;
71164;SDS011;58859;55.132;-1.586;2024-02-15T04:56:08;6.70;;;4.63;;
71164;SDS011;58859;55.132;-1.586;2024-02-15T04:58:39;6.80;;;4.63;;
71164;SDS011;58859;55.132;-1.586;2024-02-15T05:01:16;7.35;;;4.40;;
71164;SDS011;58859;55.132;-1.586;2024-02-15T05:03:42;5.35;;;4.18;;
71164;SDS011;58859;55.132;-1.586;2024-02-15T05:06:08;6.18;;;4.30;;
71164;SDS011;58859;55.132;-1.586;2024-02-15T05:08:35;7.57;;;4.90;;
71164;SDS011;58859;55.132;-1.586;2024-02-15T05:11:03;6.33;;;4.70;;
71164;SDS011;58859;55.132;-1.586;2024-02-15T05:13:29;6.32;;;4.53;;
71164;SDS011;58859;55.132;-1.586;2024-02-15T05:15:55;7.57;;;4.68;;
71164;SDS011;58859;55.132;-1.586;2024-02-15T05:18:20;8.27;;;5.10;;
71164;SDS011;58859;55.132;-1.586;2024-02-15T05:20:46;7.85;;;4.78;;
71164;SDS011;58859;55.132;-1.586;2024-02-15T05:23:11;9.35;;;5.45;;
71164;SDS011;58859;55.132;-1.586;2024-02-15T05:25:37;9.63;;;5.03;;
71164;SDS011;58859;55.132;-1.586;2024-02-15T05:28:03;6.72;;;4.40;;
71164;SDS011;58859;55.132;-1.586;2024-02-15T05:30:31;6.20;;;4.20;;
71164;SDS011;58859;55.132;-1.586;2024-02-15T05:32:57;7.93;;;4.70;;
71164;SDS011;58859;55.132;-1.586;2024-02-15T05:35:23;5.80;;;4.85;;
71164;SDS011;58859;55.132;-1.586;2024-02-15T05:37:49;5.57;;;4.60;;
71164;SDS011;58859;55.132;-1.586;2024-02-15T05:40:17;6.22;;;4.03;;
71164;SDS011;58859;55.132;-1.586;2024-02-15T05:42:44;4.57;;;3.75;;
71164;SDS011;58859;55.132;-1.586;2024-02-15T05:47:48;5.85;;;3.90;;
71164;SDS011;58859;55.132;-1.586;2024-02-15T05:50:13;5.90;;;4.20;;
71164;SDS011;58859;55.132;-1.586;2024-02-15T05:52:40;7.80;;;4.55;;
71164;SDS011;58859;55.132;-1.586;2024-02-15T05:55:06;4.73;;;4.10;;
71164;SDS011;58859;55.132;-1.586;2024-02-15T05:57:32;5.60;;;3.97;;
71164;SDS011;58859;55.132;-1.586;2024-02-15T05:59:58;6.83;;;4.27;;
71164;SDS011;58859;55.132;-1.586;2024-02-15T06:02:27;10.25;;;4.60;;
71164;SDS011;58859;55.132;-1.586;2024-02-15T06:04:52;8.53;;;4.80;;
71164;SDS011;58859;55.132;-1.586;2024-02-15T06:07:19;6.03;;;4.22;;
71164;SDS011;58859;55.132;-1.586;2024-02-15T06:09:45;5.90;;;4.10;;
71164;SDS011;58859;55.132;-1.586;2024-02-15T06:12:11;5.13;;;3.63;;
71164;SDS011;58859;55.132;-1.586;2024-02-15T06:14:36;6.90;;;4.20;;
71164;SDS011;58859;55.132;-1.586;2024-02-15T06:17:02;4.97;;;4.30;;
71164;SDS011;58859;55.132;-1.586;2024-02-15T06:19:28;6.00;;;4.20;;
71164;SDS011;58859;55.132;-1.586;2024-02-15T06:21:53;6.43;;;4.23;;
71164;SDS011;58859;55.132;-1.586;2024-02-15T06:24:18;8.65;;;4.55;;
71164;SDS011;58859;55.132;-1.586;2024-02-15T06:26:44;4.97;;;4.00;;
71164;SDS011;58859;55.132;-1.586;2024-02-15T06:29:10;4.47;;;3.70;;
71164;SDS011;58859;55.132;-1.586;2024-02-15T06:31:54;4.80;;;3.80;;
71164;SDS011;58859;55.132;-1.586;2024-02-15T06:34:38;5.65;;;3.70;;
71164;SDS011;58859;55.132;-1.586;2024-02-15T06:37:36;4.15;;;3.30;;
71164;SDS011;58859;55.132;-1.586;2024-02-15T06:40:21;4.17;;;3.33;;
71164;SDS011;58859;55.132;-1.586;2024-02-15T06:42:47;5.32;;;3.50;;
71164;SDS011;58859;55.132;-1.586;2024-02-15T06:45:13;4.43;;;3.33;;
71164;SDS011;58859;55.132;-1.586;2024-02-15T06:47:42;3.87;;;2.90;;
71164;SDS011;58859;55.132;-1.586;2024-02-15T06:50:10;3.35;;;3.00;;
71164;SDS011;58859;55.132;-1.586;2024-02-15T06:52:37;2.63;;;2.20;;
71164;SDS011;58859;55.132;-1.586;2024-02-15T06:55:03;3.00;;;2.70;;
71164;SDS011;58859;55.132;-1.586;2024-02-15T06:57:32;2.83;;;2.28;;
71164;SDS011;58859;55.132;-1.586;2024-02-15T07:00:00;4.27;;;2.63;;
71164;SDS011;58859;55.132;-1.586;2024-02-15T07:02:27;4.03;;;2.67;;
71164;SDS011;58859;55.132;-1.586;2024-02-15T07:04:54;3.97;;;3.03;;
71164;SDS011;58859;55.132;-1.586;2024-02-15T07:07:19;4.13;;;2.50;;
71164;SDS011;58859;55.132;-1.586;2024-02-15T07:09:44;3.50;;;2.43;;
71164;SDS011;58859;55.132;-1.586;2024-02-15T07:12:10;2.20;;;2.00;;
71164;SDS011;58859;55.132;-1.586;2024-02-15T07:14:36;3.27;;;1.93;;
71164;SDS011;58859;55.132;-1.586;2024-02-15T07:17:01;3.75;;;2.40;;
71164;SDS011;58859;55.132;-1.586;2024-02-15T07:19:27;2.63;;;1.63;;
71164;SDS011;58859;55.132;-1.586;2024-02-15T07:21:52;2.00;;;1.90;;
71164;SDS011;58859;55.132;-1.586;2024-02-15T07:24:18;2.43;;;1.60;;
71164;SDS011;58859;55.132;-1.586;2024-02-15T07:26:44;2.00;;;1.80;;
71164;SDS011;58859;55.132;-1.586;2024-02-15T07:29:09;2.00;;;1.67;;
71164;SDS011;58859;55.132;-1.586;2024-02-15T07:31:36;2.30;;;2.10;;
71164;SDS011;58859;55.132;-1.586;2024-02-15T07:34:01;3.22;;;2.00;;
71164;SDS011;58859;55.132;-1.586;2024-02-15T07:36:28;3.08;;;2.05;;
71164;SDS011;58859;55.132;-1.586;2024-02-15T07:38:54;3.22;;;1.85;;
71164;SDS011;58859;55.132;-1.586;2024-02-15T07:41:22;3.60;;;2.13;;
71164;SDS011;58859;55.132;-1.586;2024-02-15T07:43:49;2.38;;;2.15;;
71164;SDS011;58859;55.132;-1.586;2024-02-15T07:46:15;5.22;;;2.22;;
71164;SDS011;58859;55.132;-1.586;2024-02-15T07:48:44;3.15;;;2.40;;
71164;SDS011;58859;55.132;-1.586;2024-02-15T07:51:15;2.93;;;2.50;;
71164;SDS011;58859;55.132;-1.586;2024-02-15T07:53:43;4.03;;;2.80;;
71164;SDS011;58859;55.132;-1.586;2024-02-15T07:56:09;2.53;;;2.30;;
71164;SDS011;58859;55.132;-1.586;2024-02-15T07:58:39;4.00;;;2.50;;
71164;SDS011;58859;55.132;-1.586;2024-02-15T08:01:06;3.85;;;2.55;;
71164;SDS011;58859;55.132;-1.586;2024-02-15T08:03:33;5.43;;;2.70;;
71164;SDS011;58859;55.132;-1.586;2024-02-15T08:06:00;3.22;;;2.45;;
71164;SDS011;58859;55.132;-1.586;2024-02-15T08:08:26;3.55;;;2.38;;
71164;SDS011;58859;55.132;-1.586;2024-02-15T08:10:51;3.67;;;2.60;;
71164;SDS011;58859;55.132;-1.586;2024-02-15T08:13:16;5.27;;;2.70;;
71164;SDS011;58859;55.132;-1.586;2024-02-15T08:15:43;5.32;;;3.85;;
71164;SDS011;58859;55.132;-1.586;2024-02-15T08:18:09;3.88;;;3.20;;
71164;SDS011;58859;55.132;-1.586;2024-02-15T08:20:37;5.13;;;3.25;;
71164;SDS011;58859;55.132;-1.586;2024-02-15T08:23:05;5.70;;;3.67;;
71164;SDS011;58859;55.132;-1.586;2024-02-15T08:25:31;7.35;;;3.83;;
71164;SDS011;58859;55.132;-1.586;2024-02-15T08:27:56;6.13;;;3.43;;
71164;SDS011;58859;55.132;-1.586;2024-02-15T08:30:22;4.97;;;3.50;;
71164;SDS011;58859;55.132;-1.586;2024-02-15T08:32:47;6.47;;;3.78;;
71164;SDS011;58859;55.132;-1.586;2024-02-15T08:35:13;6.13;;;4.37;;
71164;SDS011;58859;55.132;-1.586;2024-02-15T08:37:39;6.63;;;4.30;;
71164;SDS011;58859;55.132;-1.586;2024-02-15T08:40:07;7.10;;;4.30;;
71164;SDS011;58859;55.132;-1.586;2024-02-15T08:42:41;8.27;;;5.35;;
71164;SDS011;58859;55.132;-1.586;2024-02-15T08:45:07;6.20;;;4.28;;
71164;SDS011;58859;55.132;-1.586;2024-02-15T08:47:35;9.73;;;4.15;;
71164;SDS011;58859;55.132;-1.586;2024-02-15T08:50:02;9.57;;;5.30;;
71164;SDS011;58859;55.132;-1.586;2024-02-15T08:52:28;8.57;;;5.70;;
71164;SDS011;58859;55.132;-1.586;2024-02-15T08:54:54;9.55;;;5.80;;
71164;SDS011;58859;55.132;-1.586;2024-02-15T08:57:20;8.43;;;5.37;;
71164;SDS011;58859;55.132;-1.586;2024-02-15T08:59:46;10.25;;;6.00;;
71164;SDS011;58859;55.132;-1.586;2024-02-15T09:02:12;9.27;;;5.07;;
71164;SDS011;58859;55.132;-1.586;2024-02-15T09:04:39;7.65;;;5.55;;
71164;SDS011;58859;55.132;-1.586;2024-02-15T09:07:06;10.68;;;5.18;;
71164;SDS011;58859;55.132;-1.586;2024-02-15T09:09:32;8.20;;;5.05;;
71164;SDS011;58859;55.132;-1.586;2024-02-15T09:12:00;8.20;;;4.68;;
71164;SDS011;58859;55.132;-1.586;2024-02-15T09:14:30;9.53;;;5.37;;
71164;SDS011;58859;55.132;-1.586;2024-02-15T09:16:59;8.45;;;4.55;;
71164;SDS011;58859;55.132;-1.586;2024-02-15T09:19:25;10.75;;;5.57;;
71164;SDS011;58859;55.132;-1.586;2024-02-15T09:21:51;10.90;;;5.33;;
71164;SDS011;58859;55.132;-1.586;2024-02-15T09:24:16;10.63;;;5.70;;
71164;SDS011;58859;55.132;-1.586;2024-02-15T09:26:42;9.00;;;4.73;;
71164;SDS011;58859;55.132;-1.586;2024-02-15T09:29:09;7.38;;;4.40;;
71164;SDS011;58859;55.132;-1.586;2024-02-15T09:31:35;7.13;;;4.83;;
71164;SDS011;58859;55.132;-1.586;2024-02-15T09:34:01;8.70;;;5.38;;
71164;SDS011;58859;55.132;-1.586;2024-02-15T09:36:33;6.53;;;4.18;;
71164;SDS011;58859;55.132;-1.586;2024-02-15T09:38:59;5.80;;;4.07;;
71164;SDS011;58859;55.132;-1.586;2024-02-15T09:41:25;6.20;;;4.47;;
71164;SDS011;58859;55.132;-1.586;2024-02-15T09:43:50;8.90;;;5.40;;
71164;SDS011;58859;55.132;-1.586;2024-02-15T09:46:17;9.15;;;5.55;;
71164;SDS011;58859;55.132;-1.586;2024-02-15T09:48:43;8.07;;;4.60;;
71164;SDS011;58859;55.132;-1.586;2024-02-15T09:51:14;8.10;;;3.63;;
71164;SDS011;58859;55.132;-1.586;2024-02-15T09:53:43;5.32;;;3.65;;
71164;SDS011;58859;55.132;-1.586;2024-02-15T09:56:09;5.97;;;3.80;;
71164;SDS011;58859;55.132;-1.586;2024-02-15T09:58:37;5.18;;;3.20;;
71164;SDS011;58859;55.132;-1.586;2024-02-15T10:01:03;5.70;;;3.42;;
71164;SDS011;58859;55.132;-1.586;2024-02-15T10:03:34;4.80;;;3.10;;
71164;SDS011;58859;55.132;-1.586;2024-02-15T10:06:06;5.00;;;3.10;;
71164;SDS011;58859;55.132;-1.586;2024-02-15T10:08:32;5.38;;;3.80;;
71164;SDS011;58859;55.132;-1.586;2024-02-15T10:11:07;5.23;;;3.70;;
71164;SDS011;58859;55.132;-1.586;2024-02-15T10:13:33;6.97;;;4.00;;
71164;SDS011;58859;55.132;-1.586;2024-02-15T10:15:59;7.87;;;3.80;;
71164;SDS011;58859;55.132;-1.586;2024-02-15T10:18:40;5.82;;;3.60;;
71164;SDS011;58859;55.132;-1.586;2024-02-15T10:21:05;6.23;;;3.30;;
71164;SDS011;58859;55.132;-1.586;2024-02-15T10:23:31;8.23;;;4.38;;
71164;SDS011;58859;55.132;-1.586;2024-02-15T10:25:56;6.87;;;4.13;;
71164;SDS011;58859;55.132;-1.586;2024-02-15T10:28:23;5.40;;;4.15;;
71164;SDS011;58859;55.132;-1.586;2024-02-15T10:30:49;6.63;;;4.10;;
71164;SDS011;58859;55.132;-1.586;2024-02-15T10:33:18;8.32;;;4.45;;
71164;SDS011;58859;55.132;-1.586;2024-02-15T10:35:45;8.23;;;4.82;;
71164;SDS011;58859;55.132;-1.586;2024-02-15T10:38:11;8.77;;;5.10;;
71164;SDS011;58859;55.132;-1.586;2024-02-15T10:40:38;9.20;;;4.38;;
71164;SDS011;58859;55.132;-1.586;2024-02-15T10:43:08;7.78;;;5.30;;
71164;SDS011;58859;55.132;-1.586;2024-02-15T10:45:35;7.28;;;4.63;;
71164;SDS011;58859;55.132;-1.586;2024-02-15T10:48:02;7.20;;;5.07;;
71164;SDS011;58859;55.132;-1.586;2024-02-15T10:50:30;10.67;;;6.90;;
71164;SDS011;58859;55.132;-1.586;2024-02-15T10:52:56;8.23;;;5.03;;
71164;SDS011;58859;55.132;-1.586;2024-02-15T10:58:05;8.82;;;4.78;;
71164;SDS011;58859;55.132;-1.586;2024-02-15T11:00:34;8.70;;;5.63;;
71164;SDS011;58859;55.132;-1.586;2024-02-15T11:03:03;8.93;;;5.22;;
71164;SDS011;58859;55.132;-1.586;2024-02-15T11:05:36;7.78;;;5.50;;
71164;SDS011;58859;55.132;-1.586;2024-02-15T11:08:05;10.13;;;5.95;;
71164;SDS011;58859;55.132;-1.586;2024-02-15T11:10:33;9.13;;;6.07;;
71164;SDS011;58859;55.132;-1.586;2024-02-15T11:13:00;8.60;;;5.93;;
71164;SDS011;58859;55.132;-1.586;2024-02-15T11:15:44;10.23;;;6.03;;
71164;SDS011;58859;55.132;-1.586;2024-02-15T11:21:11;10.35;;;5.88;;
71164;SDS011;58859;55.132;-1.586;2024-02-15T11:23:37;9.35;;;6.50;;
71164;SDS011;58859;55.132;-1.586;2024-02-15T11:26:03;8.70;;;5.80;;
71164;SDS011;58859;55.132;-1.586;2024-02-15T11:30:55;9.43;;;6.03;;
71164;SDS011;58859;55.132;-1.586;2024-02-15T11:33:30;10.48;;;5.97;;
71164;SDS011;58859;55.132;-1.586;2024-02-15T11:36:04;9.15;;;5.63;;
71164;SDS011;58859;55.132;-1.586;2024-02-15T11:38:37;10.05;;;6.28;;
71164;SDS011;58859;55.132;-1.586;2024-02-15T11:41:08;12.83;;;6.03;;
71164;SDS011;58859;55.132;-1.586;2024-02-15T11:46:26;10.10;;;6.68;;
71164;SDS011;58859;55.132;-1.586;2024-02-15T11:48:57;10.68;;;6.10;;
71164;SDS011;58859;55.132;-1.586;2024-02-15T11:51:33;11.63;;;6.93;;
71164;SDS011;58859;55.132;-1.586;2024-02-15T11:54:08;10.70;;;6.90;;
71164;SDS011;58859;55.132;-1.586;2024-02-15T11:59:08;9.45;;;6.43;;
71164;SDS011;58859;55.132;-1.586;2024-02-15T12:01:43;10.55;;;6.50;;
71164;SDS011;58859;55.132;-1.586;2024-02-15T12:04:27;10.93;;;5.82;;
71164;SDS011;58859;55.132;-1.586;2024-02-15T12:07:13;7.30;;;5.23;;
71164;SDS011;58859;55.132;-1.586;2024-02-15T12:10:00;8.90;;;5.95;;
71164;SDS011;58859;55.132;-1.586;2024-02-15T12:12:51;11.88;;;5.90;;
71164;SDS011;58859;55.132;-1.586;2024-02-15T12:15:35;11.95;;;5.60;;
71164;SDS011;58859;55.132;-1.586;2024-02-15T12:18:19;6.47;;;5.32;;
71164;SDS011;58859;55.132;-1.586;2024-02-15T12:21:03;10.73;;;5.70;;
71164;SDS011;58859;55.132;-1.586;2024-02-15T12:23:30;9.02;;;5.40;;
71164;SDS011;58859;55.132;-1.586;2024-02-15T12:25:59;10.13;;;5.05;;
71164;SDS011;58859;55.132;-1.586;2024-02-15T12:28:26;9.65;;;4.90;;
71164;SDS011;58859;55.132;-1.586;2024-02-15T12:30:55;6.37;;;4.77;;
71164;SDS011;58859;55.132;-1.586;2024-02-15T12:33:24;10.05;;;5.05;;
71164;SDS011;58859;55.132;-1.586;2024-02-15T12:35:49;10.23;;;4.68;;
71164;SDS011;58859;55.132;-1.586;2024-02-15T12:38:16;6.23;;;3.80;;
71164;SDS011;58859;55.132;-1.586;2024-02-15T12:40:42;11.30;;;4.35;;
71164;SDS011;58859;55.132;-1.586;2024-02-15T12:43:08;5.30;;;3.83;;
71164;SDS011;58859;55.132;-1.586;2024-02-15T12:45:38;6.30;;;4.23;;
71164;SDS011;58859;55.132;-1.586;2024-02-15T12:48:06;5.03;;;3.67;;
71164;SDS011;58859;55.132;-1.586;2024-02-15T12:50:32;5.57;;;3.63;;
71164;SDS011;58859;55.132;-1.586;2024-02-15T12:52:59;8.30;;;3.85;;
71164;SDS011;58859;55.132;-1.586;2024-02-15T12:55:28;5.33;;;3.77;;
71164;SDS011;58859;55.132;-1.586;2024-02-15T12:57:59;7.18;;;3.78;;
71164;SDS011;58859;55.132;-1.586;2024-02-15T13:00:28;4.80;;;3.78;;
71164;SDS011;58859;55.132;-1.586;2024-02-15T13:02:56;4.00;;;3.60;;
71164;SDS011;58859;55.132;-1.586;2024-02-15T13:05:24;3.67;;;3.25;;
71164;SDS011;58859;55.132;-1.586;2024-02-15T13:07:51;7.10;;;3.63;;
71164;SDS011;58859;55.132;-1.586;2024-02-15T13:10:21;4.55;;;3.03;;
71164;SDS011;58859;55.132;-1.586;2024-02-15T13:12:47;5.13;;;2.85;;
71164;SDS011;58859;55.132;-1.586;2024-02-15T13:15:14;6.38;;;3.70;;
71164;SDS011;58859;55.132;-1.586;2024-02-15T13:17:46;3.92;;;2.92;;
71164;SDS011;58859;55.132;-1.586;2024-02-15T13:20:21;5.30;;;3.00;;
71164;SDS011;58859;55.132;-1.586;2024-02-15T13:23:00;4.68;;;2.85;;
71164;SDS011;58859;55.132;-1.586;2024-02-15T13:25:36;9.85;;;2.55;;
71164;SDS011;58859;55.132;-1.586;2024-02-15T13:28:03;4.30;;;2.90;;
71164;SDS011;58859;55.132;-1.586;2024-02-15T13:30:29;3.00;;;2.70;;
71164;SDS011;58859;55.132;-1.586;2024-02-15T13:32:55;4.43;;;2.80;;
71164;SDS011;58859;55.132;-1.586;2024-02-15T13:35:21;4.97;;;2.60;;
71164;SDS011;58859;55.132;-1.586;2024-02-15T13:37:52;5.95;;;2.85;;
71164;SDS011;58859;55.132;-1.586;2024-02-15T13:40:19;3.50;;;2.30;;
71164;SDS011;58859;55.132;-1.586;2024-02-15T13:42:49;3.35;;;2.00;;
71164;SDS011;58859;55.132;-1.586;2024-02-15T13:45:28;4.68;;;2.50;;
71164;SDS011;58859;55.132;-1.586;2024-02-15T13:48:02;3.47;;;2.47;;
71164;SDS011;58859;55.132;-1.586;2024-02-15T13:50:30;5.45;;;2.67;;
71164;SDS011;58859;55.132;-1.586;2024-02-15T13:52:56;3.47;;;2.47;;
71164;SDS011;58859;55.132;-1.586;2024-02-15T13:55:23;3.83;;;2.30;;
71164;SDS011;58859;55.132;-1.586;2024-02-15T13:57:50;4.43;;;2.65;;
71164;SDS011;58859;55.132;-1.586;2024-02-15T14:00:17;3.83;;;2.20;;
71164;SDS011;58859;55.132;-1.586;2024-02-15T14:02:52;5.35;;;2.35;;
71164;SDS011;58859;55.132;-1.586;2024-02-15T14:05:19;3.60;;;2.40;;
71164;SDS011;58859;55.132;-1.586;2024-02-15T14:07:49;3.58;;;2.00;;
71164;SDS011;58859;55.132;-1.586;2024-02-15T14:10:15;3.45;;;1.88;;
71164;SDS011;58859;55.132;-1.586;2024-02-15T14:12:46;4.30;;;1.73;;
71164;SDS011;58859;55.132;-1.586;2024-02-15T14:15:12;3.22;;;1.63;;
71164;SDS011;58859;55.132;-1.586;2024-02-15T14:17:38;4.87;;;2.10;;
71164;SDS011;58859;55.132;-1.586;2024-02-15T14:20:04;2.38;;;1.88;;
71164;SDS011;58859;55.132;-1.586;2024-02-15T14:22:36;2.33;;;1.60;;
71164;SDS011;58859;55.132;-1.586;2024-02-15T14:25:03;3.90;;;1.80;;
71164;SDS011;58859;55.132;-1.586;2024-02-15T14:27:30;4.18;;;1.83;;
71164;SDS011;58859;55.132;-1.586;2024-02-15T14:29:55;2.60;;;1.73;;
71164;SDS011;58859;55.132;-1.586;2024-02-15T14:32:39;3.03;;;2.22;;
71164;SDS011;58859;55.132;-1.586;2024-02-15T14:35:23;2.80;;;1.98;;
71164;SDS011;58859;55.132;-1.586;2024-02-15T14:37:49;2.57;;;2.20;;
71164;SDS011;58859;55.132;-1.586;2024-02-15T14:40:14;2.17;;;1.67;;
71164;SDS011;58859;55.132;-1.586;2024-02-15T14:42:40;4.77;;;2.60;;
71164;SDS011;58859;55.132;-1.586;2024-02-15T14:45:07;5.10;;;2.40;;
71164;SDS011;58859;55.132;-1.586;2024-02-15T14:47:34;2.97;;;2.60;;
71164;SDS011;58859;55.132;-1.586;2024-02-15T14:49:59;3.80;;;2.57;;
71164;SDS011;58859;55.132;-1.586;2024-02-15T14:52:25;3.10;;;2.42;;